Time;durP1;ratioP1;P1;durP2;ratioP2;P2;SDS_P1;SDS_P2;PMS_P1;PMS_P2;Temp;Humidity;BMP_temperature;BMP_pressure;BME280_temperature;BME280_humidity;BME280_pressure;Samples;Min_cycle;Max_cycle;Signal;HPM_P1;HPM_P2
2021/10/15 00:00:14;;;;;;;20.73;10.70;;;13.10;99.90;;;;;;5015625;28;20466;-51
2021/10/15 00:02:44;;;;;;;20.27;11.90;;;13.20;99.90;;;;;;5015861;28;20469;-50
2021/10/15 00:05:11;;;;;;;20.13;12.63;;;13.10;99.90;;;;;;5016420;28;20453;-51
2021/10/15 00:07:38;;;;;;;18.70;9.83;;;13.20;99.90;;;;;;5014840;28;20470;-47
2021/10/15 00:10:06;;;;;;;17.13;10.43;;;13.20;99.90;;;;;;5015678;28;20441;-50
2021/10/15 00:12:33;;;;;;;14.30;9.40;;;13.10;99.90;;;;;;5014905;28;20462;-48
2021/10/15 00:15:00;;;;;;;17.20;10.50;;;13.10;99.90;;;;;;5015315;28;20516;-51
2021/10/15 00:17:28;;;;;;;17.63;9.47;;;13.10;99.90;;;;;;5015510;28;20522;-54
2021/10/15 00:19:56;;;;;;;18.87;10.23;;;13.10;99.90;;;;;;5014972;28;20430;-48
2021/10/15 00:22:24;;;;;;;23.80;11.40;;;13.10;99.90;;;;;;5014885;28;20457;-49
2021/10/15 00:24:51;;;;;;;12.60;8.60;;;13.10;99.90;;;;;;5015172;28;20418;-48
2021/10/15 00:27:18;;;;;;;14.27;8.70;;;13.10;99.90;;;;;;5014848;28;20489;-48
2021/10/15 00:29:44;;;;;;;17.93;8.87;;;13.10;99.90;;;;;;5014982;28;20434;-46
2021/10/15 00:32:11;;;;;;;16.30;9.13;;;13.00;99.90;;;;;;5015462;28;20476;-49
2021/10/15 00:34:39;;;;;;;16.40;8.90;;;13.00;99.90;;;;;;5014872;28;20521;-49
2021/10/15 00:37:07;;;;;;;15.97;9.47;;;13.00;99.90;;;;;;5014423;28;20481;-45
2021/10/15 00:39:36;;;;;;;14.93;9.87;;;13.00;99.90;;;;;;5015066;28;20443;-49
2021/10/15 00:42:03;;;;;;;12.60;8.33;;;13.00;99.90;;;;;;5014901;28;20529;-51
2021/10/15 00:44:30;;;;;;;17.83;9.73;;;12.90;99.90;;;;;;5015142;28;20454;-46
2021/10/15 00:46:57;;;;;;;12.93;8.87;;;12.90;99.90;;;;;;5015068;28;20477;-45
2021/10/15 00:49:26;;;;;;;14.30;8.90;;;12.90;99.90;;;;;;5015157;28;20438;-48
2021/10/15 00:51:53;;;;;;;14.20;7.80;;;12.90;99.90;;;;;;5015035;28;20446;-48
2021/10/15 00:54:25;;;;;;;12.40;8.07;;;12.90;99.90;;;;;;5015517;28;20481;-48
2021/10/15 00:56:51;;;;;;;13.47;8.30;;;12.90;99.90;;;;;;5015632;28;20410;-48
2021/10/15 00:59:18;;;;;;;14.77;8.20;;;12.90;99.90;;;;;;5015523;28;20550;-49
2021/10/15 01:01:45;;;;;;;15.90;9.30;;;12.90;99.90;;;;;;5015545;28;20786;-54
2021/10/15 01:04:11;;;;;;;16.70;8.20;;;12.90;99.90;;;;;;5015119;28;20457;-50
2021/10/15 01:06:38;;;;;;;12.93;8.03;;;12.80;99.90;;;;;;5014479;28;20437;-47
2021/10/15 01:09:05;;;;;;;10.20;7.77;;;12.80;99.90;;;;;;5014615;28;20482;-45
2021/10/15 01:11:33;;;;;;;13.50;8.77;;;12.90;99.90;;;;;;5014875;28;20481;-55
2021/10/15 01:14:01;;;;;;;15.50;7.93;;;12.90;99.90;;;;;;5015809;28;20521;-50
2021/10/15 01:16:29;;;;;;;14.40;9.17;;;12.90;99.90;;;;;;5015828;28;20461;-56
2021/10/15 01:18:58;;;;;;;11.57;7.00;;;12.90;99.90;;;;;;5015771;28;20474;-55
2021/10/15 01:21:27;;;;;;;17.63;9.40;;;12.90;99.90;;;;;;5016267;28;20477;-51
2021/10/15 01:23:54;;;;;;;11.40;7.23;;;12.90;99.90;;;;;;5015789;28;20473;-49
2021/10/15 01:26:20;;;;;;;12.60;8.17;;;12.80;99.90;;;;;;5015973;28;20438;-54
2021/10/15 01:28:47;;;;;;;19.47;9.07;;;12.80;99.90;;;;;;5015737;28;20489;-53
2021/10/15 01:31:14;;;;;;;15.13;7.17;;;12.80;99.90;;;;;;5016355;28;20422;-49
2021/10/15 01:33:40;;;;;;;13.13;8.03;;;12.90;99.90;;;;;;5015765;28;20477;-54
2021/10/15 01:36:07;;;;;;;14.07;8.50;;;12.80;99.90;;;;;;5015938;28;20488;-54
2021/10/15 01:38:35;;;;;;;14.97;8.40;;;12.80;99.90;;;;;;5015916;28;20470;-56
2021/10/15 01:41:02;;;;;;;10.93;7.17;;;12.80;99.90;;;;;;5015857;28;20472;-55
2021/10/15 01:43:30;;;;;;;15.70;8.00;;;12.80;99.90;;;;;;5015528;28;20500;-53
2021/10/15 01:45:58;;;;;;;12.43;7.90;;;12.80;99.90;;;;;;5016021;28;20442;-54
2021/10/15 01:48:25;;;;;;;11.43;7.37;;;12.80;99.90;;;;;;5016015;28;20469;-52
2021/10/15 01:50:52;;;;;;;7.13;6.37;;;12.80;99.90;;;;;;5016159;28;20438;-52
2021/10/15 01:53:19;;;;;;;9.43;6.13;;;12.80;99.90;;;;;;5015510;28;20462;-50
2021/10/15 01:55:48;;;;;;;11.07;7.67;;;12.80;99.90;;;;;;5015759;28;20422;-55
2021/10/15 01:58:17;;;;;;;14.03;9.43;;;12.80;99.90;;;;;;5015299;28;20473;-55
2021/10/15 02:00:44;;;;;;;14.97;8.40;;;12.90;99.90;;;;;;5015437;28;20442;-52
2021/10/15 02:03:12;;;;;;;10.47;8.20;;;12.90;99.90;;;;;;5015275;28;20469;-54
2021/10/15 02:05:39;;;;;;;10.93;6.73;;;12.90;99.90;;;;;;5015853;28;20426;-51
2021/10/15 02:08:06;;;;;;;8.70;6.43;;;12.90;99.90;;;;;;5015536;28;20450;-52
2021/10/15 02:10:33;;;;;;;11.93;8.20;;;12.90;99.90;;;;;;5015417;28;20910;-53
2021/10/15 02:13:01;;;;;;;10.93;7.23;;;12.80;99.90;;;;;;5015537;28;20453;-52
2021/10/15 02:15:31;;;;;;;14.83;7.77;;;12.90;99.90;;;;;;5015500;28;20474;-55
2021/10/15 02:17:58;;;;;;;16.87;8.63;;;12.90;99.90;;;;;;5016130;28;20486;-53
2021/10/15 02:20:24;;;;;;;8.40;6.40;;;12.90;99.90;;;;;;5018845;28;20425;-53
2021/10/15 02:22:52;;;;;;;11.60;6.20;;;12.90;99.90;;;;;;5018557;28;20485;-55
2021/10/15 02:25:21;;;;;;;12.00;7.20;;;12.90;99.90;;;;;;5019193;28;20441;-52
2021/10/15 02:27:48;;;;;;;16.87;7.30;;;12.90;99.90;;;;;;5018845;28;20478;-54
2021/10/15 02:30:17;;;;;;;10.63;6.83;;;12.90;99.90;;;;;;5018510;28;20477;-50
2021/10/15 02:32:44;;;;;;;11.67;7.17;;;12.90;99.90;;;;;;5018470;28;20459;-53
2021/10/15 02:35:12;;;;;;;9.00;6.20;;;12.90;99.90;;;;;;5055228;22;20466;-52
2021/10/15 02:37:39;;;;;;;9.73;6.53;;;12.90;99.90;;;;;;5078129;28;20523;-52
2021/10/15 02:40:13;;;;;;;8.27;6.23;;;12.90;99.90;;;;;;5096505;22;20447;-55
2021/10/15 02:42:42;;;;;;;9.83;6.73;;;12.90;99.90;;;;;;5058294;28;20424;-55
2021/10/15 02:45:11;;;;;;;10.87;7.47;;;12.80;99.90;;;;;;5077922;22;20419;-57
2021/10/15 02:47:40;;;;;;;9.07;6.53;;;12.90;99.90;;;;;;5038164;28;20452;-55
2021/10/15 02:50:08;;;;;;;14.60;7.07;;;12.90;99.90;;;;;;5046541;23;20492;-47
2021/10/15 02:52:38;;;;;;;9.33;6.47;;;12.90;99.90;;;;;;5037208;28;20437;-51
2021/10/15 02:55:06;;;;;;;10.90;6.30;;;12.80;99.90;;;;;;5037837;28;20563;-51
2021/10/15 02:57:33;;;;;;;9.00;6.10;;;12.90;99.90;;;;;;5061551;23;20476;-54
2021/10/15 03:00:00;;;;;;;7.90;5.70;;;12.90;99.90;;;;;;5057823;28;20535;-55
2021/10/15 03:02:27;;;;;;;9.47;5.90;;;12.90;99.90;;;;;;5084187;22;20555;-51
2021/10/15 03:04:55;;;;;;;10.80;6.83;;;12.90;99.90;;;;;;5057396;28;20491;-53
2021/10/15 03:07:24;;;;;;;9.50;5.83;;;12.90;99.90;;;;;;5090236;22;20497;-54
2021/10/15 03:09:50;;;;;;;10.10;7.00;;;12.90;99.90;;;;;;5037857;28;20469;-52
2021/10/15 03:12:17;;;;;;;10.20;7.33;;;12.80;99.90;;;;;;5060151;22;20477;-52
2021/10/15 03:14:44;;;;;;;11.43;7.43;;;12.80;99.90;;;;;;5037765;28;20500;-53
2021/10/15 03:17:12;;;;;;;7.33;5.67;;;12.80;99.90;;;;;;5060694;22;20480;-56
2021/10/15 03:19:42;;;;;;;9.37;6.00;;;12.80;99.90;;;;;;5037222;28;20469;-58
2021/10/15 03:24:37;;;;;;;7.93;6.00;;;12.80;99.90;;;;;;5042679;22;20512;-53
2021/10/15 03:27:07;;;;;;;8.80;6.23;;;12.80;99.90;;;;;;5037427;28;20429;-57
2021/10/15 03:29:37;;;;;;;8.80;6.90;;;12.80;99.90;;;;;;5060647;23;20520;-51
2021/10/15 03:32:05;;;;;;;11.93;7.50;;;12.70;99.90;;;;;;5037260;28;20430;-50
2021/10/15 03:34:32;;;;;;;8.97;5.77;;;12.80;99.90;;;;;;5075156;22;20516;-57
2021/10/15 03:36:59;;;;;;;10.27;6.00;;;12.70;99.90;;;;;;5037472;28;20444;-53
2021/10/15 03:39:32;;;;;;;10.17;6.30;;;12.80;99.90;;;;;;5055998;22;20516;-55
2021/10/15 03:42:00;;;;;;;10.30;5.90;;;12.70;99.90;;;;;;5057073;28;20440;-54
2021/10/15 03:44:26;;;;;;;8.73;5.97;;;12.70;99.90;;;;;;5063187;23;20464;-57
2021/10/15 03:46:55;;;;;;;8.17;5.47;;;12.70;99.90;;;;;;5057533;28;20448;-52
2021/10/15 03:49:22;;;;;;;7.67;6.17;;;12.70;99.90;;;;;;5072066;23;20475;-54
2021/10/15 03:51:51;;;;;;;9.10;6.43;;;12.70;99.90;;;;;;5077366;28;20957;-56
2021/10/15 03:54:20;;;;;;;9.73;6.60;;;12.60;99.90;;;;;;5069948;23;20480;-53
2021/10/15 03:56:46;;;;;;;10.30;6.90;;;12.70;99.90;;;;;;5036957;28;20441;-53
2021/10/15 03:59:14;;;;;;;11.03;6.00;;;12.60;99.90;;;;;;5059894;22;20492;-54
2021/10/15 04:01:41;;;;;;;7.37;5.77;;;12.60;99.90;;;;;;5036885;28;20465;-52
2021/10/15 04:04:08;;;;;;;9.93;6.67;;;12.60;99.90;;;;;;5044306;23;20437;-57
2021/10/15 04:06:35;;;;;;;12.77;6.23;;;12.60;99.90;;;;;;5036572;28;20428;-60
2021/10/15 04:09:03;;;;;;;9.17;6.50;;;12.60;99.90;;;;;;5045344;23;20453;-51
2021/10/15 04:11:30;;;;;;;8.07;5.40;;;12.50;99.90;;;;;;5054065;28;20463;-51
2021/10/15 04:13:58;;;;;;;10.47;6.20;;;12.50;99.90;;;;;;5056060;28;20441;-50
2021/10/15 04:16:27;;;;;;;8.60;5.67;;;12.50;99.90;;;;;;5061455;23;20466;-54
2021/10/15 04:18:54;;;;;;;9.20;5.57;;;12.50;99.90;;;;;;5056038;28;20420;-55
2021/10/15 04:21:21;;;;;;;9.60;4.83;;;12.50;99.90;;;;;;5047114;22;20519;-50
2021/10/15 04:23:48;;;;;;;7.63;5.60;;;12.40;99.90;;;;;;5036002;28;20437;-56
2021/10/15 04:26:23;;;;;;;9.90;6.43;;;12.50;99.90;;;;;;5043619;23;20533;-53
2021/10/15 04:28:50;;;;;;;9.60;5.67;;;12.40;99.90;;;;;;5035738;28;20405;-56
2021/10/15 04:31:22;;;;;;;8.90;6.20;;;12.40;99.90;;;;;;5043293;23;20503;-54
2021/10/15 04:33:50;;;;;;;7.73;5.50;;;12.50;99.90;;;;;;5035950;28;20468;-51
2021/10/15 04:36:16;;;;;;;8.93;5.50;;;12.40;99.90;;;;;;5067149;23;20502;-50
2021/10/15 04:38:43;;;;;;;9.63;6.50;;;12.50;99.90;;;;;;5055587;28;20448;-51
2021/10/15 04:41:10;;;;;;;10.13;6.70;;;12.50;99.90;;;;;;5055896;23;20505;-56
2021/10/15 04:43:36;;;;;;;9.33;5.07;;;12.40;99.90;;;;;;5035355;28;20468;-55
2021/10/15 04:46:03;;;;;;;10.03;6.97;;;12.50;99.90;;;;;;5043492;23;20837;-57
2021/10/15 04:48:30;;;;;;;6.70;5.60;;;12.50;99.90;;;;;;5036317;28;20426;-54
2021/10/15 04:50:59;;;;;;;9.67;5.57;;;12.50;99.90;;;;;;5043562;23;20437;-54
2021/10/15 04:53:28;;;;;;;8.70;5.53;;;12.50;99.90;;;;;;5035817;28;20433;-55
2021/10/15 04:55:56;;;;;;;6.77;5.90;;;12.50;99.90;;;;;;5044780;23;20499;-53
2021/10/15 04:58:23;;;;;;;7.33;4.50;;;12.50;99.90;;;;;;5034444;28;20469;-53
2021/10/15 05:00:52;;;;;;;8.70;5.50;;;12.50;99.90;;;;;;5035429;28;20507;-57
2021/10/15 05:03:19;;;;;;;10.27;6.43;;;12.50;99.90;;;;;;5043171;23;20480;-52
2021/10/15 05:05:46;;;;;;;7.90;6.17;;;12.60;99.90;;;;;;5035651;28;20922;-51
2021/10/15 05:08:16;;;;;;;6.30;5.10;;;12.60;99.90;;;;;;5057777;22;20484;-55
2021/10/15 05:10:44;;;;;;;6.90;5.27;;;12.60;99.90;;;;;;5055149;28;20524;-54
2021/10/15 05:13:13;;;;;;;7.17;5.07;;;12.60;99.90;;;;;;5079168;23;20526;-55
2021/10/15 05:15:40;;;;;;;6.70;4.80;;;12.60;99.90;;;;;;5035554;28;20496;-56
2021/10/15 05:18:07;;;;;;;8.73;5.40;;;12.60;99.90;;;;;;5068676;23;20503;-54
2021/10/15 05:20:45;;;;;;;7.63;4.70;;;12.60;99.90;;;;;;5055433;28;20499;-51
2021/10/15 05:23:16;;;;;;;9.30;4.30;;;12.60;99.90;;;;;;5085676;23;20574;-53
2021/10/15 05:25:45;;;;;;;7.37;4.70;;;12.60;99.90;;;;;;5075296;28;20467;-54
2021/10/15 05:28:11;;;;;;;6.50;3.90;;;12.60;99.90;;;;;;5070033;22;20532;-55
2021/10/15 05:30:38;;;;;;;9.97;5.97;;;12.60;99.90;;;;;;5035436;28;20497;-50
2021/10/15 05:35:38;;;;;;;7.63;4.60;;;12.60;99.90;;;;;;5056194;22;20718;-56
2021/10/15 05:38:04;;;;;;;6.83;5.13;;;12.60;99.90;;;;;;5035471;28;20474;-50
2021/10/15 05:40:32;;;;;;;6.80;4.67;;;12.60;99.90;;;;;;5042396;23;20518;-54
2021/10/15 05:42:59;;;;;;;6.53;4.57;;;12.60;99.90;;;;;;5035478;28;20449;-55
2021/10/15 05:45:26;;;;;;;8.50;4.40;;;12.70;99.90;;;;;;5056605;23;20484;-53
2021/10/15 05:47:53;;;;;;;6.57;5.00;;;12.70;99.90;;;;;;5054904;28;20516;-53
2021/10/15 05:50:19;;;;;;;5.50;4.63;;;12.70;99.90;;;;;;5037635;23;20509;-54
2021/10/15 05:52:48;;;;;;;7.17;5.43;;;12.70;99.90;;;;;;5015999;28;20470;-54
2021/10/15 06:00:50;;;;;;;6.63;4.73;;;12.80;99.90;;;;;;5074293;22;20528;-56
2021/10/15 06:03:21;;;;;;;8.50;5.47;;;12.70;99.90;;;;;;5038575;28;20502;-52
2021/10/15 06:14:18;;;;;;;7.83;4.60;;;12.80;99.90;;;;;;5038890;28;20415;-55
2021/10/15 06:16:49;;;;;;;5.13;4.27;;;12.80;99.90;;;;;;5039118;28;20478;-55
2021/10/15 06:19:18;;;;;;;5.90;4.20;;;12.80;99.90;;;;;;5039445;28;20430;-57
2021/10/15 06:21:45;;;;;;;5.70;4.53;;;12.90;99.90;;;;;;5038565;28;20540;-54
2021/10/15 06:24:12;;;;;;;6.00;4.53;;;12.90;99.90;;;;;;5038658;28;20516;-53
2021/10/15 06:26:40;;;;;;;4.87;3.73;;;12.90;99.90;;;;;;5037964;28;20472;-49
2021/10/15 06:29:08;;;;;;;6.13;4.20;;;12.90;99.90;;;;;;5038101;28;20441;-52
2021/10/15 06:31:35;;;;;;;5.90;4.57;;;12.90;99.90;;;;;;5037615;28;20528;-51
2021/10/15 06:34:02;;;;;;;5.77;4.30;;;13.00;99.90;;;;;;5037770;28;20487;-49
2021/10/15 06:36:29;;;;;;;6.87;3.93;;;13.00;99.90;;;;;;5037872;28;20480;-51
2021/10/15 06:38:57;;;;;;;4.87;3.43;;;13.00;99.90;;;;;;5038525;28;20446;-54
2021/10/15 06:41:24;;;;;;;11.87;4.90;;;13.00;99.90;;;;;;5037771;28;20468;-56
2021/10/15 06:43:50;;;;;;;5.70;4.07;;;13.10;99.90;;;;;;5037575;28;20453;-53
2021/10/15 06:46:20;;;;;;;7.07;3.47;;;13.10;99.90;;;;;;5038031;28;20479;-59
2021/10/15 06:48:47;;;;;;;6.87;3.87;;;13.10;99.90;;;;;;5038208;28;20540;-56
2021/10/15 06:51:13;;;;;;;4.70;4.03;;;13.20;99.90;;;;;;5038311;28;20473;-51
2021/10/15 06:53:42;;;;;;;5.57;2.87;;;13.20;99.90;;;;;;5038032;28;20424;-53
2021/10/15 06:56:09;;;;;;;7.93;4.87;;;13.10;99.90;;;;;;5037621;28;20489;-49
2021/10/15 06:58:35;;;;;;;5.87;4.20;;;13.20;99.90;;;;;;5038103;28;20425;-51
2021/10/15 07:01:02;;;;;;;10.30;4.60;;;13.10;99.90;;;;;;5037570;28;20896;-54
2021/10/15 07:03:31;;;;;;;5.13;3.63;;;13.10;99.90;;;;;;5037430;28;20451;-53
2021/10/15 07:05:58;;;;;;;5.47;4.17;;;13.20;99.90;;;;;;5037388;28;20475;-51
2021/10/15 07:08:25;;;;;;;5.70;2.93;;;13.10;99.90;;;;;;5037329;28;20529;-49
2021/10/15 07:10:53;;;;;;;4.40;3.97;;;13.10;99.90;;;;;;5037113;28;20473;-53
2021/10/15 07:13:20;;;;;;;5.83;3.30;;;13.20;99.90;;;;;;5036870;28;20429;-53
2021/10/15 07:15:47;;;;;;;5.43;3.70;;;13.20;99.90;;;;;;5037028;28;20512;-57
2021/10/15 07:18:13;;;;;;;15.00;3.20;;;13.20;99.90;;;;;;5037343;28;20440;-51
2021/10/15 07:20:43;;;;;;;12.80;3.47;;;13.20;99.90;;;;;;5037532;28;20503;-56
2021/10/15 07:23:10;;;;;;;6.90;3.57;;;13.20;99.90;;;;;;5037550;28;20450;-54
2021/10/15 07:25:37;;;;;;;7.70;3.13;;;13.20;99.90;;;;;;5037597;28;20456;-53
2021/10/15 07:28:04;;;;;;;4.67;3.30;;;13.30;99.90;;;;;;5037191;28;20476;-55
2021/10/15 07:30:31;;;;;;;4.97;3.80;;;13.30;99.90;;;;;;5037556;28;20445;-50
2021/10/15 07:32:58;;;;;;;4.83;4.10;;;13.30;99.90;;;;;;5037074;28;20444;-54
2021/10/15 07:35:24;;;;;;;4.40;3.10;;;13.30;99.90;;;;;;5037439;28;20516;-55
2021/10/15 07:37:52;;;;;;;6.03;3.30;;;13.30;99.90;;;;;;5036875;28;20472;-53
2021/10/15 07:40:19;;;;;;;3.73;2.47;;;13.30;99.90;;;;;;5037027;28;20446;-51
2021/10/15 07:42:46;;;;;;;5.03;3.20;;;13.30;99.90;;;;;;5037314;28;20476;-51
2021/10/15 07:45:12;;;;;;;6.30;3.37;;;13.30;99.90;;;;;;5037283;28;20472;-52
2021/10/15 07:47:39;;;;;;;5.43;2.87;;;13.40;99.90;;;;;;5037141;28;20441;-54
2021/10/15 07:50:07;;;;;;;8.17;3.30;;;13.40;99.90;;;;;;5036943;28;20465;-53
2021/10/15 07:52:34;;;;;;;4.27;3.37;;;13.50;99.90;;;;;;5037550;28;20441;-53
2021/10/15 07:55:02;;;;;;;10.83;3.73;;;13.50;99.90;;;;;;5037483;28;20425;-52
2021/10/15 07:57:29;;;;;;;3.93;2.90;;;13.50;99.90;;;;;;5037247;28;20548;-50
2021/10/15 07:59:57;;;;;;;3.90;3.10;;;13.50;99.90;;;;;;5037167;28;20461;-53
2021/10/15 08:02:26;;;;;;;8.03;5.03;;;13.50;99.90;;;;;;5036835;28;20461;-53
2021/10/15 08:04:53;;;;;;;8.43;4.10;;;13.60;99.90;;;;;;5036661;28;20479;-55
2021/10/15 08:07:21;;;;;;;10.87;4.70;;;13.60;99.90;;;;;;5036615;28;20474;-60
2021/10/15 08:09:48;;;;;;;3.30;2.70;;;13.60;99.90;;;;;;5036937;28;20447;-53
2021/10/15 08:12:16;;;;;;;5.10;2.50;;;13.60;99.90;;;;;;5036640;28;20457;-55
2021/10/15 08:14:43;;;;;;;3.10;2.47;;;13.60;99.90;;;;;;5037464;28;20449;-53
2021/10/15 08:17:10;;;;;;;4.50;2.90;;;13.60;99.90;;;;;;5036031;28;20559;-50
2021/10/15 08:19:37;;;;;;;5.07;3.47;;;13.60;99.90;;;;;;5036367;28;20456;-54
2021/10/15 08:22:04;;;;;;;4.60;3.20;;;13.70;99.90;;;;;;5036405;28;20538;-55
2021/10/15 08:24:31;;;;;;;3.43;2.63;;;13.70;99.90;;;;;;5036534;28;20449;-48
2021/10/15 08:26:58;;;;;;;6.67;3.17;;;13.70;99.90;;;;;;5036405;28;20461;-48
2021/10/15 08:29:30;;;;;;;12.00;6.97;;;13.70;99.90;;;;;;5036745;28;20465;-51
2021/10/15 08:31:57;;;;;;;6.73;2.80;;;13.70;99.90;;;;;;5036223;28;20528;-54
2021/10/15 08:34:24;;;;;;;3.60;2.60;;;13.70;99.90;;;;;;5036349;28;20455;-54
2021/10/15 08:36:53;;;;;;;3.63;2.40;;;13.70;99.90;;;;;;5036125;28;20481;-56
2021/10/15 08:39:26;;;;;;;5.90;3.20;;;13.70;99.90;;;;;;5036311;28;20495;-52
2021/10/15 08:41:53;;;;;;;6.40;3.37;;;13.70;99.90;;;;;;5036441;28;20523;-55
2021/10/15 08:44:20;;;;;;;4.27;3.20;;;13.70;99.90;;;;;;5036426;28;20448;-54
2021/10/15 08:46:48;;;;;;;5.17;2.20;;;13.70;99.90;;;;;;5035598;28;20465;-55
2021/10/15 08:49:15;;;;;;;3.80;2.63;;;13.80;99.90;;;;;;5035604;28;20445;-47
2021/10/15 08:51:41;;;;;;;3.57;2.03;;;13.80;99.90;;;;;;5036120;28;20463;-54
2021/10/15 08:54:08;;;;;;;4.53;3.00;;;13.80;99.90;;;;;;5035800;28;20409;-54
2021/10/15 08:56:35;;;;;;;7.10;2.67;;;13.80;99.90;;;;;;5035093;28;20489;-55
2021/10/15 08:59:05;;;;;;;3.00;2.30;;;13.80;99.90;;;;;;5035205;28;20484;-52
2021/10/15 09:01:40;;;;;;;11.67;3.23;;;13.90;99.90;;;;;;5035246;28;20928;-55
2021/10/15 09:04:10;;;;;;;3.63;2.27;;;14.00;99.90;;;;;;5035524;28;20431;-56
2021/10/15 09:06:39;;;;;;;2.80;2.10;;;14.00;99.90;;;;;;5035840;28;20461;-50
2021/10/15 09:09:07;;;;;;;6.83;2.40;;;14.00;99.90;;;;;;5035547;28;20438;-56
2021/10/15 09:11:36;;;;;;;3.77;2.83;;;14.00;99.90;;;;;;5035514;28;20484;-56
2021/10/15 09:14:22;;;;;;;1.80;1.60;;;14.10;99.90;;;;;;5035024;28;20437;-54
2021/10/15 09:17:02;;;;;;;3.00;1.87;;;14.10;99.90;;;;;;5034518;28;20489;-52
2021/10/15 09:19:33;;;;;;;3.70;2.23;;;14.00;99.90;;;;;;5035045;28;20476;-52
2021/10/15 09:22:10;;;;;;;3.57;2.40;;;14.10;99.90;;;;;;5035387;28;20465;-47
2021/10/15 09:24:39;;;;;;;2.07;1.70;;;14.10;99.90;;;;;;5035874;28;20471;-53
2021/10/15 09:27:17;;;;;;;2.43;2.00;;;14.20;99.90;;;;;;5036275;28;20468;-58
2021/10/15 09:29:46;;;;;;;3.77;2.60;;;14.20;99.90;;;;;;5039525;28;20436;-56
2021/10/15 09:32:14;;;;;;;2.97;2.40;;;14.30;99.90;;;;;;5038629;28;20476;-52
2021/10/15 09:34:43;;;;;;;3.70;1.90;;;14.40;99.90;;;;;;5039610;28;20428;-54
2021/10/15 09:37:20;;;;;;;4.00;2.90;;;14.50;99.90;;;;;;5038947;28;20485;-54
2021/10/15 09:39:47;;;;;;;2.97;2.10;;;14.50;99.90;;;;;;5038941;28;20456;-53
2021/10/15 09:42:24;;;;;;;2.60;1.93;;;14.60;99.90;;;;;;5038734;28;20464;-52
2021/10/15 09:44:52;;;;;;;2.60;1.70;;;14.60;99.90;;;;;;5039081;28;20481;-54
2021/10/15 09:47:23;;;;;;;2.53;1.97;;;14.60;99.90;;;;;;5039296;28;20455;-51
2021/10/15 09:49:54;;;;;;;4.03;2.50;;;14.70;99.90;;;;;;5038255;28;20459;-52
2021/10/15 09:52:32;;;;;;;4.70;2.20;;;14.70;99.90;;;;;;5038854;28;20508;-55
2021/10/15 09:55:02;;;;;;;4.40;2.70;;;14.70;99.90;;;;;;5038440;28;20504;-55
2021/10/15 09:57:32;;;;;;;2.57;2.37;;;14.70;99.90;;;;;;5038291;28;20508;-56
2021/10/15 10:00:00;;;;;;;5.33;2.20;;;14.60;99.90;;;;;;5038560;28;20465;-53
2021/10/15 10:02:28;;;;;;;3.63;2.13;;;14.60;99.90;;;;;;5038548;28;20521;-58
2021/10/15 10:04:57;;;;;;;4.63;2.00;;;14.60;99.90;;;;;;5038752;28;20451;-55
2021/10/15 10:07:25;;;;;;;1.90;1.67;;;14.50;99.90;;;;;;5037920;28;20448;-52
2021/10/15 10:09:53;;;;;;;14.00;2.50;;;14.50;99.90;;;;;;5038260;28;20452;-56
2021/10/15 10:12:21;;;;;;;3.17;2.03;;;14.50;99.90;;;;;;5038551;28;20488;-50
2021/10/15 10:14:49;;;;;;;2.97;2.07;;;14.40;99.90;;;;;;5038061;28;20460;-52
2021/10/15 10:17:25;;;;;;;3.43;2.80;;;14.40;99.90;;;;;;5037552;28;20500;-51
2021/10/15 10:19:58;;;;;;;3.23;1.93;;;14.40;99.90;;;;;;5037887;28;20432;-48
2021/10/15 10:22:28;;;;;;;4.17;2.00;;;14.30;99.90;;;;;;5038770;28;20460;-54
2021/10/15 10:24:57;;;;;;;3.30;1.70;;;14.40;99.90;;;;;;5038388;28;20445;-49
2021/10/15 10:27:28;;;;;;;1.97;1.57;;;14.30;99.90;;;;;;5038378;28;20461;-48
2021/10/15 10:29:55;;;;;;;2.23;1.80;;;14.40;99.90;;;;;;5037958;28;20441;-54
2021/10/15 10:32:24;;;;;;;2.60;1.50;;;14.30;99.90;;;;;;5038492;28;20465;-51
2021/10/15 10:34:51;;;;;;;3.53;1.77;;;14.40;99.90;;;;;;5037102;28;20426;-54
2021/10/15 10:37:21;;;;;;;2.50;1.60;;;14.40;99.90;;;;;;5037501;28;20516;-56
2021/10/15 10:39:49;;;;;;;4.13;1.80;;;14.50;99.90;;;;;;5036388;28;20445;-53
2021/10/15 10:42:18;;;;;;;2.37;1.63;;;14.50;99.90;;;;;;5037066;28;20508;-53
2021/10/15 10:45:10;;;;;;;2.80;1.93;;;14.40;99.90;;;;;;5036805;28;20589;-55
2021/10/15 10:47:36;;;;;;;5.60;2.17;;;14.40;99.90;;;;;;5036026;28;20464;-56
2021/10/15 10:50:10;;;;;;;9.07;4.43;;;14.30;99.90;;;;;;5036983;28;20422;-54
2021/10/15 10:52:59;;;;;;;4.90;2.80;;;14.30;99.90;;;;;;5036802;28;20466;-52
2021/10/15 10:55:34;;;;;;;5.20;2.10;;;14.30;99.90;;;;;;5036637;28;20440;-53
2021/10/15 10:58:01;;;;;;;2.90;2.03;;;14.20;99.90;;;;;;5037309;28;20499;-50
2021/10/15 11:00:31;;;;;;;2.93;1.90;;;14.20;99.90;;;;;;5038129;28;20441;-52
2021/10/15 11:03:00;;;;;;;3.00;2.10;;;14.20;99.90;;;;;;5037998;28;20517;-54
2021/10/15 11:05:35;;;;;;;2.80;1.87;;;14.10;99.90;;;;;;5037850;28;20496;-57
2021/10/15 11:08:32;;;;;;;2.50;1.80;;;14.10;99.90;;;;;;5038355;28;20452;-55
2021/10/15 11:11:43;;;;;;;2.77;1.87;;;13.80;99.90;;;;;;5038308;28;20454;-52
2021/10/15 11:14:44;;;;;;;3.57;2.27;;;13.60;99.90;;;;;;5038503;28;20410;-57
2021/10/15 11:17:11;;;;;;;5.90;2.23;;;13.60;99.90;;;;;;5037866;28;20507;-55
2021/10/15 11:19:38;;;;;;;5.33;2.30;;;13.60;99.90;;;;;;5038111;28;20453;-56
2021/10/15 11:22:05;;;;;;;3.93;2.93;;;13.60;99.90;;;;;;5038023;28;20481;-53
2021/10/15 11:24:31;;;;;;;7.27;2.40;;;13.60;99.90;;;;;;5037463;28;20472;-50
2021/10/15 11:27:00;;;;;;;3.50;2.17;;;13.60;99.90;;;;;;5037797;28;20437;-55
2021/10/15 11:29:27;;;;;;;2.83;2.13;;;13.50;99.90;;;;;;5037615;28;20533;-56
2021/10/15 11:31:56;;;;;;;4.00;2.77;;;13.50;99.90;;;;;;5037396;28;20445;-56
2021/10/15 11:34:22;;;;;;;3.77;2.37;;;13.50;99.90;;;;;;5037288;28;20505;-48
2021/10/15 11:37:04;;;;;;;4.37;2.60;;;13.50;99.90;;;;;;5037510;28;20496;-54
2021/10/15 11:39:31;;;;;;;6.00;2.00;;;13.50;99.90;;;;;;5037410;28;20499;-55
2021/10/15 11:41:58;;;;;;;6.07;2.60;;;13.50;99.90;;;;;;5037394;28;20455;-52
2021/10/15 11:44:37;;;;;;;3.60;2.60;;;13.40;99.90;;;;;;5037121;28;20484;-53
2021/10/15 11:47:04;;;;;;;3.97;2.97;;;13.30;99.90;;;;;;5036958;28;20496;-52
2021/10/15 11:49:38;;;;;;;4.80;2.30;;;13.20;99.90;;;;;;5036821;28;20520;-55
2021/10/15 11:52:05;;;;;;;13.20;2.83;;;13.20;99.90;;;;;;5015436;28;20449;-55
2021/10/15 11:54:32;;;;;;;3.97;2.60;;;13.10;99.90;;;;;;5016150;28;20453;-56
2021/10/15 11:56:59;;;;;;;4.40;2.30;;;13.00;99.90;;;;;;5015654;28;20476;-53
2021/10/15 11:59:26;;;;;;;5.17;2.77;;;13.00;99.90;;;;;;5016037;28;20986;-52
2021/10/15 12:01:59;;;;;;;5.37;2.87;;;13.00;99.90;;;;;;5015856;28;20461;-54
2021/10/15 12:04:26;;;;;;;4.00;2.40;;;12.90;99.90;;;;;;5015751;28;20488;-62
2021/10/15 12:06:53;;;;;;;2.70;2.10;;;12.90;99.90;;;;;;5015914;28;20433;-56
2021/10/15 12:09:21;;;;;;;2.00;1.43;;;12.80;99.90;;;;;;5015834;28;20503;-56
2021/10/15 12:11:51;;;;;;;2.87;1.67;;;12.50;99.90;;;;;;5015677;28;20445;-54
2021/10/15 12:14:21;;;;;;;2.10;1.67;;;12.40;99.90;;;;;;5015725;28;20480;-56
2021/10/15 12:16:52;;;;;;;2.13;1.40;;;12.20;99.90;;;;;;5015745;28;20489;-55
2021/10/15 12:19:26;;;;;;;1.93;1.30;;;12.10;99.90;;;;;;5015316;28;20929;-55
2021/10/15 12:22:01;;;;;;;1.73;1.00;;;12.10;99.90;;;;;;5015649;28;20429;-57
2021/10/15 12:24:30;;;;;;;3.00;1.17;;;12.10;99.90;;;;;;5015573;28;20468;-53
2021/10/15 12:27:02;;;;;;;1.60;1.10;;;12.10;99.90;;;;;;5015254;28;20507;-55
2021/10/15 12:29:30;;;;;;;1.30;1.00;;;12.00;99.90;;;;;;5015405;28;20473;-56
2021/10/15 12:32:14;;;;;;;1.80;1.27;;;12.10;99.90;;;;;;5015415;28;20515;-54
2021/10/15 12:35:15;;;;;;;1.20;0.90;;;12.00;99.90;;;;;;5015492;28;20449;-57
2021/10/15 12:37:45;;;;;;;1.50;0.93;;;12.00;99.90;;;;;;4993040;28;20496;-58
2021/10/15 12:40:30;;;;;;;5.00;1.23;;;12.00;99.90;;;;;;5015071;28;20968;-56
2021/10/15 12:43:14;;;;;;;1.70;0.80;;;11.90;99.90;;;;;;5015024;28;20878;-54
2021/10/15 12:45:43;;;;;;;1.20;1.00;;;11.90;99.90;;;;;;5015319;28;20437;-54
2021/10/15 12:48:16;;;;;;;2.40;1.20;;;11.90;99.90;;;;;;5015100;28;20441;-57
2021/10/15 12:50:58;;;;;;;2.43;1.73;;;11.80;99.90;;;;;;5015493;28;20448;-59
2021/10/15 12:53:25;;;;;;;1.97;1.50;;;11.90;99.90;;;;;;5015618;28;20555;-62
2021/10/15 12:55:55;;;;;;;3.60;1.20;;;11.90;99.90;;;;;;5015165;28;20481;-56
2021/10/15 12:58:23;;;;;;;2.37;1.57;;;11.80;99.90;;;;;;5015041;28;20465;-55
2021/10/15 13:00:53;;;;;;;1.47;1.10;;;11.80;99.90;;;;;;5014863;28;20453;-56
2021/10/15 13:03:20;;;;;;;7.40;1.70;;;11.70;99.90;;;;;;5014342;28;20902;-55
2021/10/15 13:05:50;;;;;;;3.93;1.73;;;11.70;99.90;;;;;;5014785;28;20457;-55
2021/10/15 13:08:18;;;;;;;1.20;0.93;;;11.80;99.90;;;;;;5014604;28;20472;-55
2021/10/15 13:10:46;;;;;;;4.50;1.10;;;11.80;99.90;;;;;;5014739;28;20914;-57